• Join FlightAware (Why Join?)
  • Login
  • US Flag 
02:51AM EDT


 

Airport Tracker/Info


-or-


 

Live Flight TrackerFlight Track Log ✈ JIA2392 ✈ 07-Apr-2012 ✈ KCLT - KCHS

Flight Track Log - Related Links

Times and Time Zones

All times are in EDT time to prevent confusion due to time zone crossing. See the JIA2392 flight status page for this flight to view local times or setup timezone preferences in your user account.

Time Position Orientation Groundspeed Altitude Reporting Facility
EDT Latitude Longitude Course Direction KTS MPH feet Rate Location/Type
08:01AM 35.1927 -80.9309 North  Level FlightAware Approximate
08:02AM 35.0891 -80.9065 357° North  Level FlightAware Approximate
08:03AM 35.2886 -80.9192 78° East 206 237 4,000  Level Atlanta Center
08:04AM 35.3031 -80.8347 98° East 268 308 6,500 2,400 Climbing Atlanta Center
08:05AM 35.2922 -80.7383 137° Southeast 291 335 9,000 1,980 Climbing Atlanta Center
08:06AM 35.2167 -80.6525 201° Southwest 325 374 11,300 1,740 Climbing Atlanta Center
08:07AM 35.1322 -80.6917 201° Southwest 277 319 13,300 1,800 Climbing Atlanta Center
08:08AM 35.0458 -80.7331 190° South 316 364 14,900 1,680 Climbing Atlanta Center
08:11AM 34.7847 -80.7894 179° South 373 429 19,200 1,440 Climbing Jacksonville Center
08:12AM 34.6764 -80.7872 178° South 388 447 20,000 360 Climbing Jacksonville Center
08:13AM 34.5656 -80.7822 177° South 393 452 20,000  Level Jacksonville Center
08:14AM 34.4550 -80.7747 175° South 400 460 20,000  Level Jacksonville Center
08:15AM 34.3464 -80.7625 179° South 401 461 20,000  Level Jacksonville Center
08:16AM 34.2525 -80.7597 178° South 401 461 20,000 -360 Level Jacksonville Center
08:17AM 34.1397 -80.7550 178° South 396 456 19,300 -900 Descending Jacksonville Center
08:18AM 34.0247 -80.7503 178° South 406 467 18,300 -900 Descending Jacksonville Center
08:19AM 33.9119 -80.7456 178° South 406 467 17,600 -900 Descending Jacksonville Center
08:20AM 33.8075 -80.7406 161° South 401 461 16,600 -1,020 Descending Jacksonville Center
08:21AM 33.7067 -80.6981 144° Southeast 395 455 15,600 -1,020 Descending Jacksonville Center
08:22AM 33.6242 -80.6253 147° Southeast 371 427 14,600 -1,200 Descending Jacksonville Center
08:23AM 33.5414 -80.5600 145° Southeast 360 414 13,300 -1,320 Descending Jacksonville Center
08:24AM 33.4631 -80.4950 146° Southeast 355 409 12,000 -1,200 Descending Jacksonville Center
08:25AM 33.3867 -80.4325 154° Southeast 344 396 11,000 -540 Descending Jacksonville Center
08:26AM 33.3106 -80.3872 164° South 328 377 11,000 -480 Level Jacksonville Center
08:27AM 33.2244 -80.3572 165° South 315 362 10,100 -1,380 Descending Jacksonville Center
08:28AM 33.1406 -80.3300 167° South 310 357 8,300 -1,800 Descending Jacksonville Center
08:29AM 33.0608 -80.3075 166° South 304 350 6,600 -1,920 Descending Jacksonville Center
08:30AM 32.9767 -80.2828 161° South 283 326 4,500 -1,560 Descending Jacksonville Center
08:31AM 32.9094 -80.2550 138° Southeast 270 311 3,500 -840 Descending Jacksonville Center
08:32AM 32.8667 -80.2092 121° Southeast 220 253 2,900 -600 Descending Jacksonville Center
08:33AM 32.8406 -80.1581 121° Southeast 198 228 2,300 -600 Descending Jacksonville Center